createdAt,value
2019-02-26T00:00:32.531Z,64.27
2019-02-26T00:01:32.518Z,64.06
2019-02-26T00:02:32.659Z,63.54
2019-02-26T00:03:33.204Z,63.82
2019-02-26T00:04:34.486Z,64.34
2019-02-26T00:05:33.062Z,63.41
2019-02-26T00:06:32.464Z,63.51
2019-02-26T00:07:32.462Z,63.62
2019-02-26T00:08:33.508Z,63.20
2019-02-26T00:09:35.083Z,63.51
2019-02-26T00:10:35.882Z,63.93
2019-02-26T00:11:33.400Z,63.82
2019-02-26T00:12:33.287Z,63.54
2019-02-26T00:13:34.103Z,63.82
2019-02-26T00:14:32.369Z,63.54
2019-02-26T00:15:35.527Z,63.65
2019-02-26T00:16:35.411Z,63.75
2019-02-26T00:17:36.059Z,63.85
2019-02-26T00:18:32.375Z,63.75
2019-02-26T00:19:32.315Z,63.96
2019-02-26T00:20:34.356Z,64.27
2019-02-26T00:21:32.299Z,64.06
2019-02-26T00:22:34.035Z,64.09
2019-02-26T00:23:32.272Z,64.20
2019-02-26T00:24:35.035Z,64.20
2019-02-26T00:25:32.272Z,64.30
2019-02-26T00:26:34.029Z,64.30
2019-02-26T00:27:32.969Z,64.20
2019-02-26T00:28:34.047Z,64.92
2019-02-26T00:29:32.287Z,64.72
2019-02-26T00:30:33.401Z,64.92
2019-02-26T00:31:32.187Z,64.82
2019-02-26T00:32:33.812Z,64.64
2019-02-26T00:33:32.161Z,64.51
2019-02-26T00:34:32.766Z,65.26
2019-02-26T00:35:32.174Z,64.43
2019-02-26T00:36:33.728Z,64.61
2019-02-26T00:37:32.126Z,64.61
2019-02-26T00:38:33.061Z,64.51
2019-02-26T00:39:32.095Z,64.72
2019-02-26T00:40:34.225Z,64.51
2019-02-26T00:41:33.564Z,64.40
2019-02-26T00:42:33.823Z,64.64
2019-02-26T00:43:32.914Z,64.75
2019-02-26T00:44:32.777Z,65.26
2019-02-26T00:45:34.121Z,64.75
2019-02-26T00:46:32.594Z,64.30
2019-02-26T00:47:34.002Z,64.54
2019-02-26T00:48:33.652Z,64.54
2019-02-26T00:49:32.008Z,64.95
2019-02-26T00:50:33.147Z,65.16
2019-02-26T00:51:31.972Z,65.37
2019-02-26T00:52:32.720Z,65.16
2019-02-26T00:53:33.085Z,65.68
2019-02-26T00:54:34.279Z,65.81
2019-02-26T00:55:32.710Z,65.70
2019-02-26T00:56:33.858Z,65.78
2019-02-26T00:57:33.526Z,66.12
2019-02-26T00:58:32.085Z,65.91
2019-02-26T00:59:31.881Z,66.12
2019-02-26T01:00:33.265Z,66.22
2019-02-26T01:01:31.865Z,66.02
2019-02-26T01:02:31.840Z,66.02
2019-02-26T01:03:31.830Z,65.91
2019-02-26T01:04:31.822Z,65.89
2019-02-26T01:05:31.813Z,65.70
2019-02-26T01:06:33.488Z,65.78
2019-02-26T01:07:31.785Z,65.29
2019-02-26T01:08:31.774Z,65.91
2019-02-26T01:09:33.889Z,65.81
2019-02-26T01:10:31.780Z,66.02
2019-02-26T01:11:31.755Z,65.91
2019-02-26T01:12:33.039Z,66.33
2019-02-26T01:13:32.262Z,66.36
2019-02-26T01:14:31.745Z,66.44
2019-02-26T01:15:31.697Z,66.36
2019-02-26T01:16:31.696Z,66.57
2019-02-26T01:17:33.457Z,66.85
2019-02-26T01:18:31.676Z,66.67
2019-02-26T01:19:32.157Z,66.47
2019-02-26T01:20:32.042Z,66.88
2019-02-26T01:21:33.541Z,67.09
2019-02-26T01:22:33.031Z,67.74
2019-02-26T01:23:31.613Z,67.74
2019-02-26T01:24:32.719Z,67.82
2019-02-26T01:25:31.600Z,66.99
2019-02-26T01:26:31.581Z,67.09
2019-02-26T01:27:31.569Z,67.09
2019-02-26T01:28:31.555Z,66.99
2019-02-26T01:29:32.344Z,67.09
2019-02-26T01:30:33.781Z,67.09
2019-02-26T01:31:32.174Z,67.09
2019-02-26T01:32:31.513Z,66.99
2019-02-26T01:33:32.159Z,67.19
2019-02-26T01:34:31.485Z,66.99
2019-02-26T01:35:33.147Z,67.30
2019-02-26T01:36:31.507Z,67.09
2019-02-26T01:37:32.196Z,67.30
2019-02-26T01:38:31.447Z,66.99
2019-02-26T01:39:31.436Z,67.30
2019-02-26T01:40:31.428Z,67.71
2019-02-26T01:41:31.413Z,67.54
2019-02-26T01:42:31.732Z,67.95
2019-02-26T01:43:31.384Z,68.37
2019-02-26T01:44:32.947Z,68.40
2019-02-26T01:45:32.395Z,68.71
2019-02-26T01:46:32.263Z,68.91
2019-02-26T01:47:31.366Z,68.57
2019-02-26T01:48:32.206Z,68.47
2019-02-26T01:49:31.326Z,68.37
2019-02-26T01:50:33.227Z,68.26
2019-02-26T01:51:31.306Z,68.26
2019-02-26T01:52:31.305Z,68.16
2019-02-26T01:53:31.276Z,67.95
2019-02-26T01:54:33.015Z,67.92
2019-02-26T01:55:31.274Z,67.30
2019-02-26T01:56:31.240Z,67.09
2019-02-26T01:57:31.231Z,67.09
2019-02-26T01:58:33.431Z,67.09
2019-02-26T01:59:33.590Z,67.19
2019-02-26T02:00:31.201Z,67.09
2019-02-26T02:01:31.191Z,67.19
2019-02-26T02:02:31.177Z,67.40
2019-02-26T02:03:32.620Z,67.30
2019-02-26T02:04:32.097Z,67.85
2019-02-26T02:05:31.465Z,67.64
2019-02-26T02:06:33.098Z,67.67
2019-02-26T02:07:31.126Z,68.50
2019-02-26T02:08:31.112Z,68.08
2019-02-26T02:09:31.099Z,67.98
2019-02-26T02:10:31.084Z,68.40
2019-02-26T02:11:32.992Z,68.19
2019-02-26T02:12:32.431Z,68.29
2019-02-26T02:13:32.969Z,68.08
2019-02-26T02:14:31.049Z,68.53
2019-02-26T02:15:31.028Z,69.05
2019-02-26T02:16:31.820Z,69.15
2019-02-26T02:17:33.292Z,69.78
2019-02-26T02:18:31.002Z,69.37
2019-02-26T02:19:32.666Z,69.68
2019-02-26T02:20:30.985Z,69.47
2019-02-26T02:21:33.191Z,69.47
2019-02-26T02:22:32.918Z,69.81
2019-02-26T02:23:30.962Z,69.47
2019-02-26T02:24:30.932Z,69.60
2019-02-26T02:25:33.144Z,70.33
2019-02-26T02:26:30.911Z,69.60
2019-02-26T02:27:33.158Z,69.81
2019-02-26T02:28:32.818Z,69.92
2019-02-26T02:29:30.878Z,70.54
2019-02-26T02:30:31.778Z,70.43
2019-02-26T02:31:34.615Z,70.33
2019-02-26T02:32:32.348Z,70.95
2019-02-26T02:33:33.093Z,70.85
2019-02-26T02:34:33.015Z,70.43
2019-02-26T02:35:31.808Z,70.23
2019-02-26T02:36:30.803Z,69.81
2019-02-26T02:37:31.952Z,69.81
2019-02-26T02:38:30.774Z,70.12
2019-02-26T02:39:30.770Z,70.23
2019-02-26T02:40:30.753Z,70.23
2019-02-26T02:41:30.753Z,70.33
2019-02-26T02:42:30.747Z,70.99
2019-02-26T02:43:30.726Z,70.89
2019-02-26T02:44:30.711Z,71.30
2019-02-26T02:45:30.716Z,71.09
2019-02-26T02:46:30.725Z,70.92
2019-02-26T02:47:33.778Z,71.30
2019-02-26T02:48:31.667Z,71.30
2019-02-26T02:49:32.761Z,71.65
2019-02-26T02:50:31.648Z,71.61
2019-02-26T02:51:31.536Z,71.09
2019-02-26T02:52:33.114Z,70.99
2019-02-26T02:53:32.347Z,71.51
2019-02-26T02:54:30.627Z,70.89
2019-02-26T02:55:30.592Z,70.89
2019-02-26T02:56:31.380Z,70.89
2019-02-26T02:57:32.675Z,71.17
2019-02-26T02:58:30.565Z,70.51
2019-02-26T02:59:31.015Z,70.30
2019-02-26T03:00:32.216Z,69.99
2019-02-26T03:01:30.528Z,69.89
2019-02-26T03:02:30.522Z,70.20
2019-02-26T03:03:30.513Z,69.71
2019-02-26T03:04:31.706Z,70.51
2019-02-26T03:05:33.677Z,70.95
2019-02-26T03:06:32.384Z,70.85
2019-02-26T03:07:30.471Z,71.37
2019-02-26T03:08:30.452Z,70.89
2019-02-26T03:09:31.705Z,70.95
2019-02-26T03:10:31.682Z,71.17
2019-02-26T03:11:30.418Z,71.20
2019-02-26T03:12:30.409Z,71.09
2019-02-26T03:13:30.397Z,71.51
2019-02-26T03:14:33.148Z,72.24
2019-02-26T03:15:33.750Z,71.61
2019-02-26T03:16:30.377Z,72.03
2019-02-26T03:17:30.401Z,71.92
2019-02-26T03:18:30.352Z,72.38
2019-02-26T03:19:32.663Z,72.45
2019-02-26T03:20:31.365Z,72.66
2019-02-26T03:21:31.315Z,72.45
2019-02-26T03:22:30.332Z,72.34
2019-02-26T03:23:31.366Z,72.55
2019-02-26T03:24:31.476Z,72.45
2019-02-26T03:25:30.271Z,72.66
2019-02-26T03:26:30.262Z,72.45
2019-02-26T03:27:31.187Z,72.45
2019-02-26T03:28:34.917Z,73.32
2019-02-26T03:29:31.224Z,73.63
2019-02-26T03:30:34.044Z,73.63
2019-02-26T03:31:35.249Z,73.94
2019-02-26T03:32:31.200Z,74.04
2019-02-26T03:33:30.206Z,73.94
2019-02-26T03:34:30.176Z,73.73
2019-02-26T03:35:30.197Z,74.04
2019-02-26T03:36:31.605Z,74.35
2019-02-26T03:37:31.315Z,74.46
2019-02-26T03:38:30.159Z,73.73
2019-02-26T03:39:30.122Z,73.83
2019-02-26T03:40:33.153Z,74.35
2019-02-26T03:41:31.280Z,74.56
2019-02-26T03:42:30.084Z,74.01
2019-02-26T03:43:31.431Z,74.63
2019-02-26T03:44:30.451Z,74.01
2019-02-26T03:45:30.077Z,74.01
2019-02-26T03:46:30.053Z,73.90
2019-02-26T03:47:30.031Z,73.80
2019-02-26T03:48:30.022Z,73.59
2019-02-26T03:49:30.026Z,73.69
2019-02-26T03:50:30.037Z,74.01
2019-02-26T03:51:29.989Z,73.87
2019-02-26T03:52:32.105Z,73.77
2019-02-26T03:53:31.413Z,73.87
2019-02-26T03:54:29.958Z,73.35
2019-02-26T03:55:31.805Z,73.52
2019-02-26T03:56:29.951Z,72.80
2019-02-26T03:57:29.927Z,72.80
2019-02-26T03:58:29.913Z,73.52
2019-02-26T03:59:29.905Z,73.21
2019-02-26T04:00:31.835Z,72.45
2019-02-26T04:01:29.916Z,72.45
2019-02-26T04:02:29.873Z,72.17
2019-02-26T04:03:32.001Z,72.59
2019-02-26T04:04:31.185Z,73.63
2019-02-26T04:05:29.836Z,73.42
2019-02-26T04:06:30.601Z,73.42
2019-02-26T04:07:30.257Z,73.52
2019-02-26T04:08:30.287Z,73.39
2019-02-26T04:09:29.795Z,73.60
2019-02-26T04:10:29.786Z,72.83
2019-02-26T04:11:29.798Z,71.80
2019-02-26T04:12:29.773Z,71.69
2019-02-26T04:13:29.752Z,72.11
2019-02-26T04:14:30.694Z,71.69
2019-02-26T04:15:31.085Z,72.00
2019-02-26T04:16:32.262Z,72.31
2019-02-26T04:17:30.804Z,72.21
2019-02-26T04:18:34.186Z,72.24
2019-02-26T04:19:30.700Z,72.73
2019-02-26T04:20:29.670Z,72.73
2019-02-26T04:21:29.659Z,72.55
2019-02-26T04:22:29.694Z,72.34
2019-02-26T04:23:29.636Z,72.24
2019-02-26T04:24:32.600Z,72.66
2019-02-26T04:25:33.359Z,73.32
2019-02-26T04:26:34.436Z,73.49
2019-02-26T04:27:30.682Z,73.52
2019-02-26T04:28:32.981Z,73.42
2019-02-26T04:29:29.567Z,73.63
2019-02-26T04:30:34.037Z,73.83
2019-02-26T04:31:30.539Z,74.18
2019-02-26T04:32:29.528Z,74.80
2019-02-26T04:33:30.310Z,74.49
2019-02-26T04:34:29.521Z,74.25
2019-02-26T04:35:29.503Z,74.25
2019-02-26T04:36:29.487Z,73.94
2019-02-26T04:37:30.695Z,73.73
2019-02-26T04:38:31.160Z,73.70
2019-02-26T04:39:29.468Z,73.60
2019-02-26T04:40:30.512Z,73.28
2019-02-26T04:41:29.433Z,73.35
2019-02-26T04:42:29.416Z,73.18
2019-02-26T04:43:31.325Z,73.25
2019-02-26T04:44:31.343Z,73.28
2019-02-26T04:45:29.384Z,73.25
2019-02-26T04:46:31.592Z,73.60
2019-02-26T04:47:33.427Z,73.70
2019-02-26T04:48:31.710Z,73.60
2019-02-26T04:49:30.887Z,73.49
2019-02-26T04:50:32.395Z,74.04
2019-02-26T04:51:30.321Z,74.01
2019-02-26T04:52:30.115Z,74.25
2019-02-26T04:53:31.174Z,74.35
2019-02-26T04:54:31.034Z,74.22
2019-02-26T04:55:32.288Z,73.80
2019-02-26T04:56:33.523Z,73.60
2019-02-26T04:57:30.254Z,74.11
2019-02-26T04:58:29.238Z,74.22
2019-02-26T04:59:29.885Z,74.22
2019-02-26T05:00:32.147Z,74.53
2019-02-26T05:01:29.218Z,74.22
2019-02-26T05:02:29.207Z,74.29
2019-02-26T05:03:29.188Z,73.66
2019-02-26T05:04:30.692Z,73.66
2019-02-26T05:05:32.035Z,73.70
2019-02-26T05:06:30.189Z,74.18
2019-02-26T05:07:29.149Z,73.66
2019-02-26T05:08:31.549Z,73.66
2019-02-26T05:09:30.590Z,73.56
2019-02-26T05:10:31.824Z,73.43
2019-02-26T05:11:32.717Z,73.32
2019-02-26T05:12:31.653Z,73.22
2019-02-26T05:13:30.196Z,73.66
2019-02-26T05:14:29.073Z,73.66
2019-02-26T05:15:32.484Z,73.46
2019-02-26T05:16:31.882Z,74.18
2019-02-26T05:17:32.624Z,73.87
2019-02-26T05:18:31.635Z,73.77
2019-02-26T05:19:29.005Z,74.29
2019-02-26T05:20:31.251Z,73.56
2019-02-26T05:21:30.437Z,74.39
2019-02-26T05:22:30.882Z,73.87
2019-02-26T05:23:31.713Z,74.18
2019-02-26T05:24:28.947Z,74.39
2019-02-26T05:25:30.915Z,74.08
2019-02-26T05:26:30.254Z,74.70
2019-02-26T05:27:28.935Z,74.39
2019-02-26T05:28:29.875Z,74.36
2019-02-26T05:29:28.909Z,74.29
2019-02-26T05:30:28.887Z,74.49
2019-02-26T05:31:29.730Z,74.05
2019-02-26T05:32:30.919Z,73.84
2019-02-26T05:33:30.981Z,73.94
2019-02-26T05:34:28.878Z,74.26
2019-02-26T05:35:28.834Z,73.74
2019-02-26T05:36:31.065Z,74.15
2019-02-26T05:37:29.790Z,74.15
2019-02-26T05:38:30.584Z,74.26
2019-02-26T05:39:28.983Z,74.60
2019-02-26T05:40:28.789Z,75.01
2019-02-26T05:41:28.759Z,75.01
2019-02-26T05:42:28.749Z,75.01
2019-02-26T05:43:30.660Z,75.43
2019-02-26T05:44:28.737Z,75.85
2019-02-26T05:45:29.912Z,75.57
2019-02-26T05:46:29.489Z,75.57
2019-02-26T05:47:28.706Z,75.98
2019-02-26T05:48:28.687Z,76.09
2019-02-26T05:49:28.680Z,76.23
2019-02-26T05:50:30.189Z,76.51
2019-02-26T05:51:30.375Z,75.92
2019-02-26T05:52:30.681Z,76.64
2019-02-26T05:53:28.630Z,76.19
2019-02-26T05:54:28.620Z,76.19
2019-02-26T05:55:28.611Z,76.51
2019-02-26T05:56:28.591Z,76.19
2019-02-26T05:57:32.679Z,76.29
2019-02-26T05:58:28.576Z,76.72
2019-02-26T05:59:28.564Z,76.16
2019-02-26T06:00:32.736Z,76.37
2019-02-26T06:01:28.543Z,76.37
2019-02-26T06:02:28.548Z,76.19
2019-02-26T06:03:28.525Z,76.09
2019-02-26T06:04:28.509Z,76.51
2019-02-26T06:05:28.499Z,76.61
2019-02-26T06:06:28.485Z,76.47
2019-02-26T06:07:31.359Z,75.98
2019-02-26T06:08:32.751Z,76.16
2019-02-26T06:09:31.217Z,76.16
2019-02-26T06:10:32.397Z,75.60
2019-02-26T06:11:31.261Z,75.54
2019-02-26T06:12:32.418Z,74.88
2019-02-26T06:13:29.047Z,74.88
2019-02-26T06:14:31.285Z,74.77
2019-02-26T06:15:29.635Z,74.88
2019-02-26T06:16:28.978Z,74.77
2019-02-26T06:17:28.358Z,74.88
2019-02-26T06:18:28.409Z,74.32
2019-02-26T06:19:30.117Z,74.01
2019-02-26T06:20:30.805Z,73.80
2019-02-26T06:21:28.318Z,73.70
2019-02-26T06:22:29.633Z,73.49
2019-02-26T06:23:31.093Z,73.39
2019-02-26T06:24:30.749Z,73.36
2019-02-26T06:25:28.275Z,73.36
2019-02-26T06:26:32.639Z,72.74
2019-02-26T06:27:29.267Z,73.25
2019-02-26T06:28:28.242Z,73.36
2019-02-26T06:29:30.046Z,73.25
2019-02-26T06:30:28.217Z,73.39
2019-02-26T06:31:28.203Z,73.05
2019-02-26T06:32:32.195Z,73.46
2019-02-26T06:33:31.840Z,73.46
2019-02-26T06:34:28.176Z,72.42
2019-02-26T06:35:28.210Z,72.18
2019-02-26T06:36:28.687Z,71.77
2019-02-26T06:37:29.169Z,71.35
2019-02-26T06:38:30.368Z,70.59
2019-02-26T06:39:29.962Z,71.11
2019-02-26T06:40:28.125Z,70.25
2019-02-26T06:41:28.097Z,70.04
2019-02-26T06:42:28.814Z,69.18
2019-02-26T06:43:28.076Z,69.08
2019-02-26T06:44:28.066Z,68.46
2019-02-26T06:45:28.056Z,68.77
2019-02-26T06:46:29.372Z,68.87
2019-02-26T06:47:30.520Z,69.49
2019-02-26T06:48:29.818Z,69.87
2019-02-26T06:49:29.099Z,70.62
2019-02-26T06:50:27.995Z,70.62
2019-02-26T06:51:28.915Z,71.35
2019-02-26T06:52:29.887Z,71.87
2019-02-26T06:53:27.961Z,72.11
2019-02-26T06:54:29.135Z,71.87
2019-02-26T06:55:27.939Z,71.70
2019-02-26T06:56:30.003Z,71.87
2019-02-26T06:57:27.922Z,71.77
2019-02-26T06:58:27.907Z,71.59
2019-02-26T06:59:29.557Z,71.59
2019-02-26T07:00:29.417Z,71.80
2019-02-26T07:01:27.910Z,71.59
2019-02-26T07:02:28.937Z,72.01
2019-02-26T07:03:27.850Z,72.11
2019-02-26T07:04:30.149Z,71.97
2019-02-26T07:05:27.834Z,72.32
2019-02-26T07:06:30.170Z,71.87
2019-02-26T07:07:27.836Z,71.45
2019-02-26T07:08:30.400Z,71.56
2019-02-26T07:09:27.792Z,71.66
2019-02-26T07:10:29.539Z,71.77
2019-02-26T07:11:30.165Z,70.83
2019-02-26T07:12:27.764Z,70.73
2019-02-26T07:13:27.750Z,70.62
2019-02-26T07:14:29.732Z,70.73
2019-02-26T07:15:29.364Z,71.04
2019-02-26T07:16:27.714Z,70.73
2019-02-26T07:17:31.856Z,71.01
2019-02-26T07:18:28.698Z,70.90
2019-02-26T07:19:29.048Z,71.11
2019-02-26T07:20:33.900Z,70.70
2019-02-26T07:21:28.657Z,71.01
2019-02-26T07:22:27.647Z,70.90
2019-02-26T07:23:29.769Z,71.22
2019-02-26T07:24:27.636Z,70.39
2019-02-26T07:25:27.622Z,70.80
2019-02-26T07:26:27.604Z,71.11
2019-02-26T07:27:28.939Z,70.49
2019-02-26T07:28:27.584Z,70.25
2019-02-26T07:29:30.806Z,70.56
2019-02-26T07:30:28.558Z,69.76
2019-02-26T07:31:28.816Z,70.25
2019-02-26T07:32:27.537Z,70.04
2019-02-26T07:33:29.838Z,69.94
2019-02-26T07:34:27.568Z,69.94
2019-02-26T07:35:28.743Z,69.53
2019-02-26T07:36:28.142Z,69.84
2019-02-26T07:37:28.706Z,69.73
2019-02-26T07:38:27.716Z,69.08
2019-02-26T07:39:27.464Z,69.18
2019-02-26T07:40:28.415Z,69.49
2019-02-26T07:41:29.853Z,69.08
2019-02-26T07:42:27.429Z,69.49
2019-02-26T07:43:27.411Z,68.43
2019-02-26T07:44:28.381Z,68.22
2019-02-26T07:45:29.615Z,68.40
2019-02-26T07:46:27.392Z,66.78
2019-02-26T07:47:29.391Z,66.03
2019-02-26T07:48:29.509Z,65.09
2019-02-26T07:49:27.343Z,66.10
2019-02-26T07:50:31.533Z,65.09
2019-02-26T07:51:29.368Z,64.99
2019-02-26T07:52:28.467Z,65.51
2019-02-26T07:53:27.303Z,65.41
2019-02-26T07:54:28.811Z,66.44
2019-02-26T07:55:27.686Z,65.82
2019-02-26T07:56:28.174Z,65.54
2019-02-26T07:57:27.708Z,66.47
2019-02-26T07:58:27.287Z,66.16
2019-02-26T07:59:27.943Z,65.95
2019-02-26T08:00:27.226Z,66.03
2019-02-26T08:01:27.221Z,65.92
2019-02-26T08:02:27.912Z,64.99
2019-02-26T08:03:29.310Z,64.14
2019-02-26T08:04:27.207Z,64.42
2019-02-26T08:05:28.886Z,63.90
2019-02-26T08:06:29.209Z,63.56
2019-02-26T08:07:28.491Z,63.32
2019-02-26T08:08:27.148Z,62.40
2019-02-26T08:09:27.129Z,63.67
2019-02-26T08:10:27.111Z,63.46
2019-02-26T08:11:27.097Z,63.87
2019-02-26T08:12:27.094Z,63.67
2019-02-26T08:13:29.857Z,63.87
2019-02-26T08:14:27.071Z,64.11
2019-02-26T08:15:27.853Z,64.28
2019-02-26T08:16:27.735Z,63.46
2019-02-26T08:17:27.038Z,63.74
2019-02-26T08:18:27.056Z,64.04
2019-02-26T08:19:29.539Z,63.74
2019-02-26T08:20:28.433Z,63.53
2019-02-26T08:21:29.108Z,63.84
2019-02-26T08:22:27.567Z,64.02
2019-02-26T08:23:26.969Z,62.34
2019-02-26T08:24:26.984Z,61.56
2019-02-26T08:25:26.962Z,60.09
2019-02-26T08:26:29.072Z,59.68
2019-02-26T08:27:28.573Z,59.31
2019-02-26T08:28:26.920Z,59.01
2019-02-26T08:29:28.904Z,59.19
2019-02-26T08:30:26.889Z,58.16
2019-02-26T08:31:27.936Z,59.01
2019-02-26T08:32:28.627Z,59.55
2019-02-26T08:33:26.860Z,59.47
2019-02-26T08:34:26.844Z,61.05
2019-02-26T08:35:26.848Z,61.80
2019-02-26T08:36:26.829Z,61.80
2019-02-26T08:37:26.820Z,61.49
2019-02-26T08:38:29.368Z,61.46
2019-02-26T08:39:26.790Z,61.35
2019-02-26T08:40:26.785Z,61.87
2019-02-26T08:41:26.766Z,61.66
2019-02-26T08:42:26.765Z,61.46
2019-02-26T08:43:26.752Z,60.06
2019-02-26T08:44:28.157Z,59.31
2019-02-26T08:45:26.763Z,59.59
2019-02-26T08:46:26.928Z,58.95
2019-02-26T08:47:26.701Z,58.85
2019-02-26T08:48:27.138Z,58.23
2019-02-26T08:49:26.717Z,57.49
2019-02-26T08:50:30.692Z,58.44
2019-02-26T08:51:27.667Z,58.34
2019-02-26T08:52:28.849Z,56.79
2019-02-26T08:53:28.520Z,57.64
2019-02-26T08:54:28.419Z,58.70
2019-02-26T08:55:26.622Z,59.34
2019-02-26T08:56:28.290Z,58.18
2019-02-26T08:57:26.589Z,58.23
2019-02-26T08:58:28.280Z,56.98
2019-02-26T08:59:26.568Z,56.87
2019-02-26T09:00:26.572Z,56.85
2019-02-26T09:01:26.549Z,55.56
2019-02-26T09:02:26.553Z,56.07
2019-02-26T09:03:26.521Z,56.30
2019-02-26T09:04:26.507Z,56.34
2019-02-26T09:05:29.176Z,56.77
2019-02-26T09:06:26.990Z,58.36
2019-02-26T09:07:26.495Z,58.98
2019-02-26T09:08:26.464Z,59.42
2019-02-26T09:09:27.774Z,59.01
2019-02-26T09:10:26.458Z,59.70
2019-02-26T09:11:28.653Z,60.94
2019-02-26T09:12:27.257Z,60.74
2019-02-26T09:13:26.437Z,61.25
2019-02-26T09:14:26.408Z,61.22
2019-02-26T09:15:26.383Z,60.81
2019-02-26T09:16:28.317Z,60.91
2019-02-26T09:17:27.518Z,60.68
2019-02-26T09:18:28.139Z,60.78
2019-02-26T09:19:27.832Z,59.31
2019-02-26T09:20:26.343Z,60.03
2019-02-26T09:21:26.320Z,59.73
2019-02-26T09:22:28.371Z,59.83
2019-02-26T09:23:28.154Z,59.73
2019-02-26T09:24:26.289Z,59.83
2019-02-26T09:25:28.789Z,59.75
2019-02-26T09:26:26.268Z,59.73
2019-02-26T09:27:27.184Z,60.24
2019-02-26T09:28:27.079Z,59.63
2019-02-26T09:29:26.242Z,60.27
2019-02-26T09:30:28.187Z,59.68
2019-02-26T09:31:26.225Z,59.78
2019-02-26T09:32:28.244Z,60.91
2019-02-26T09:33:30.558Z,60.81
2019-02-26T09:34:29.307Z,60.81
2019-02-26T09:35:28.827Z,60.61
2019-02-26T09:36:29.185Z,61.53
2019-02-26T09:37:26.146Z,60.91
2019-02-26T09:38:26.678Z,60.81
2019-02-26T09:39:27.538Z,61.30
2019-02-26T09:40:28.862Z,60.89
2019-02-26T09:41:26.101Z,60.86
2019-02-26T09:42:27.757Z,60.14
2019-02-26T09:43:26.081Z,60.14
2019-02-26T09:44:26.930Z,59.83
2019-02-26T09:45:29.307Z,60.37
2019-02-26T09:46:26.059Z,60.06
2019-02-26T09:47:28.429Z,60.17
2019-02-26T09:48:26.025Z,59.78
2019-02-26T09:49:26.730Z,60.81
2019-02-26T09:50:26.016Z,61.09
2019-02-26T09:51:25.992Z,60.89
2019-02-26T09:52:27.696Z,61.09
2019-02-26T09:53:25.973Z,60.89
2019-02-26T09:54:26.037Z,60.89
2019-02-26T09:55:25.999Z,60.99
2019-02-26T09:56:25.937Z,60.37
2019-02-26T09:57:28.199Z,60.99
2019-02-26T09:58:25.924Z,59.63
2019-02-26T09:59:26.558Z,59.83
2019-02-26T10:00:29.113Z,59.73
2019-02-26T10:01:25.875Z,59.83
2019-02-26T10:02:26.507Z,60.03
2019-02-26T10:03:27.282Z,59.91
2019-02-26T10:04:26.602Z,59.59
2019-02-26T10:05:25.829Z,59.16
2019-02-26T10:06:25.829Z,58.13
2019-02-26T10:07:26.568Z,58.95
2019-02-26T10:08:27.970Z,58.44
2019-02-26T10:09:25.799Z,58.41
2019-02-26T10:10:28.349Z,58.75
2019-02-26T10:11:27.949Z,58.95
2019-02-26T10:12:28.027Z,58.78
2019-02-26T10:13:27.692Z,58.78
2019-02-26T10:14:26.962Z,58.87
2019-02-26T10:15:25.730Z,59.29
2019-02-26T10:16:28.133Z,59.59
2019-02-26T10:17:25.705Z,59.70
2019-02-26T10:18:27.786Z,58.03
2019-02-26T10:19:25.677Z,59.03
2019-02-26T10:20:28.619Z,59.03
2019-02-26T10:21:26.667Z,58.00
2019-02-26T10:22:26.215Z,58.11
2019-02-26T10:23:26.818Z,58.51
2019-02-26T10:24:27.404Z,58.21
2019-02-26T10:25:26.427Z,58.31
2019-02-26T10:26:26.309Z,58.28
2019-02-26T10:27:25.611Z,57.26
2019-02-26T10:28:25.582Z,57.67
2019-02-26T10:29:25.573Z,57.67
2019-02-26T10:30:27.698Z,58.59
2019-02-26T10:31:27.466Z,58.46
2019-02-26T10:32:26.491Z,56.71
2019-02-26T10:33:25.528Z,57.20
2019-02-26T10:34:30.031Z,57.18
2019-02-26T10:35:33.166Z,55.72
2019-02-26T10:36:30.346Z,56.15
2019-02-26T10:37:26.494Z,56.38
2019-02-26T10:38:29.582Z,56.51
2019-02-26T10:39:28.301Z,57.33
2019-02-26T10:40:34.628Z,57.33
2019-02-26T10:41:26.443Z,56.79
2019-02-26T10:42:25.432Z,57.18
2019-02-26T10:43:25.411Z,56.67
2019-02-26T10:44:25.399Z,56.38
2019-02-26T10:45:25.388Z,56.49
2019-02-26T10:46:25.380Z,56.69
2019-02-26T10:47:27.343Z,56.59
2019-02-26T10:48:27.963Z,56.46
2019-02-26T10:49:25.363Z,56.05
2019-02-26T10:50:31.115Z,55.64
2019-02-26T10:51:27.184Z,55.82
2019-02-26T10:52:26.371Z,55.51
2019-02-26T10:53:25.313Z,56.00
2019-02-26T10:54:25.290Z,55.18
2019-02-26T10:55:31.267Z,55.97
2019-02-26T10:56:28.685Z,55.46
2019-02-26T10:57:27.006Z,54.85
2019-02-26T10:58:25.278Z,54.77
2019-02-26T10:59:25.243Z,56.10
2019-02-26T11:00:27.899Z,55.28
2019-02-26T11:01:27.649Z,55.90
2019-02-26T11:02:27.486Z,55.90
2019-02-26T11:03:25.201Z,55.51
2019-02-26T11:04:34.484Z,56.26
2019-02-26T11:05:26.759Z,57.28
2019-02-26T11:06:25.159Z,57.18
2019-02-26T11:07:26.415Z,56.46
2019-02-26T11:08:28.933Z,56.02
2019-02-26T11:09:28.719Z,57.15
2019-02-26T11:10:25.319Z,56.74
2019-02-26T11:11:25.123Z,55.90
2019-02-26T11:12:27.733Z,55.69
2019-02-26T11:13:25.887Z,56.02
2019-02-26T11:14:25.066Z,56.64
2019-02-26T11:15:26.842Z,55.90
2019-02-26T11:16:27.830Z,55.72
2019-02-26T11:17:26.323Z,55.79
2019-02-26T11:18:25.032Z,55.82
2019-02-26T11:19:27.241Z,56.02
2019-02-26T11:20:27.700Z,56.74
2019-02-26T11:21:26.010Z,56.33
2019-02-26T11:22:27.067Z,56.30
2019-02-26T11:23:30.764Z,56.10
2019-02-26T11:24:28.216Z,56.18
2019-02-26T11:25:27.420Z,55.90
2019-02-26T11:26:24.936Z,56.13
2019-02-26T11:27:24.933Z,56.43
2019-02-26T11:28:27.465Z,56.43
2019-02-26T11:29:26.109Z,57.38
2019-02-26T11:30:27.997Z,56.95
2019-02-26T11:31:25.573Z,56.54
2019-02-26T11:32:27.180Z,56.20
2019-02-26T11:33:24.868Z,56.00
2019-02-26T11:34:25.486Z,56.00
2019-02-26T11:35:27.118Z,56.74
2019-02-26T11:36:25.181Z,57.02
2019-02-26T11:37:26.694Z,56.13
2019-02-26T11:38:24.807Z,56.95
2019-02-26T11:39:24.793Z,56.87
2019-02-26T11:40:27.246Z,57.38
2019-02-26T11:41:26.372Z,57.38
2019-02-26T11:42:26.178Z,58.44
2019-02-26T11:43:26.962Z,57.89
2019-02-26T11:44:25.789Z,57.25
2019-02-26T11:45:24.726Z,57.35
2019-02-26T11:46:25.330Z,57.15
2019-02-26T11:47:24.718Z,57.02
2019-02-26T11:48:25.938Z,56.48
2019-02-26T11:49:24.678Z,56.15
2019-02-26T11:50:28.223Z,55.54
2019-02-26T11:51:24.654Z,55.71
2019-02-26T11:52:24.648Z,55.92
2019-02-26T11:53:24.639Z,56.66
2019-02-26T11:54:24.646Z,56.59
2019-02-26T11:55:26.842Z,56.35
2019-02-26T11:56:25.702Z,56.15
2019-02-26T11:57:24.591Z,56.05
2019-02-26T11:58:26.903Z,56.74
2019-02-26T11:59:24.564Z,55.69
2019-02-26T12:00:25.858Z,55.36
2019-02-26T12:01:26.993Z,54.41
2019-02-26T12:03:29.750Z,54.59
2019-02-26T12:04:24.982Z,55.84
2019-02-26T12:05:32.840Z,55.54
2019-02-26T12:06:25.489Z,55.54
2019-02-26T12:07:25.629Z,55.74
2019-02-26T12:08:25.662Z,56.35
2019-02-26T12:09:24.459Z,56.15
2019-02-26T12:10:27.084Z,56.66
2019-02-26T12:11:25.433Z,56.35
2019-02-26T12:12:25.815Z,56.15
2019-02-26T12:13:25.070Z,56.05
2019-02-26T12:14:24.400Z,56.46
2019-02-26T12:15:24.391Z,56.05
2019-02-26T12:16:24.417Z,56.35
2019-02-26T12:17:24.365Z,56.56
2019-02-26T12:18:24.359Z,56.66
2019-02-26T12:19:25.680Z,56.74
2019-02-26T12:20:24.359Z,56.25
2019-02-26T12:21:25.176Z,56.66
2019-02-26T12:22:25.192Z,57.17
2019-02-26T12:23:24.319Z,57.28
2019-02-26T12:24:26.574Z,56.97
2019-02-26T12:25:24.279Z,57.51
2019-02-26T12:26:25.618Z,57.51
2019-02-26T12:27:24.272Z,57.79
2019-02-26T12:28:25.436Z,57.48
2019-02-26T12:29:25.993Z,57.17
2019-02-26T12:30:24.224Z,57.48
2019-02-26T12:31:25.366Z,57.48
2019-02-26T12:32:24.966Z,57.79
2019-02-26T12:33:24.201Z,57.58
2019-02-26T12:34:24.174Z,58.09
2019-02-26T12:35:24.169Z,57.58
2019-02-26T12:36:26.488Z,57.58
2019-02-26T12:37:24.148Z,58.12
2019-02-26T12:38:24.145Z,57.92
2019-02-26T12:39:25.128Z,58.73
2019-02-26T12:40:25.435Z,58.94
2019-02-26T12:41:24.093Z,58.73
2019-02-26T12:42:24.080Z,57.89
2019-02-26T12:43:24.076Z,58.29
2019-02-26T12:44:24.076Z,58.20
2019-02-26T12:45:26.129Z,58.40
2019-02-26T12:46:25.124Z,58.07
2019-02-26T12:47:24.636Z,57.97
2019-02-26T12:48:24.015Z,57.43
2019-02-26T12:49:24.017Z,57.93
2019-02-26T12:50:29.084Z,57.45
2019-02-26T12:51:26.315Z,57.97
2019-02-26T12:52:26.490Z,57.53
2019-02-26T12:53:23.964Z,57.97